Time;durP1;ratioP1;P1;durP2;ratioP2;P2;SDS_P1;SDS_P2;PMS_P1;PMS_P2;Temp;Humidity;BMP_temperature;BMP_pressure;BME280_temperature;BME280_humidity;BME280_pressure;Samples;Min_cycle;Max_cycle;Signal;HPM_P1;HPM_P2
2023/10/03 00:02:03;;;;;;;12.38;10.63;;;19.90;92.00;;;;;;5092969;28;20428;-74
2023/10/03 00:04:28;;;;;;;12.90;10.63;;;19.80;92.00;;;;;;5092775;28;20074;-73
2023/10/03 00:06:54;;;;;;;12.63;11.25;;;19.80;92.20;;;;;;5092786;28;20024;-74
2023/10/03 00:09:20;;;;;;;16.52;11.30;;;19.80;92.50;;;;;;5092743;28;20047;-74
2023/10/03 00:11:45;;;;;;;21.65;12.27;;;19.80;92.30;;;;;;5092680;28;20028;-74
2023/10/03 00:14:11;;;;;;;15.35;12.20;;;19.80;92.30;;;;;;5091256;28;20032;-74
2023/10/03 00:16:38;;;;;;;16.52;12.00;;;19.80;92.40;;;;;;5092613;28;20039;-73
2023/10/03 00:19:04;;;;;;;16.42;11.32;;;19.80;92.40;;;;;;5092722;28;20070;-74
2023/10/03 00:21:29;;;;;;;11.85;10.57;;;19.80;92.40;;;;;;5092427;28;20495;-74
2023/10/03 00:23:55;;;;;;;13.73;10.48;;;19.80;92.50;;;;;;5092242;28;20020;-74
2023/10/03 00:26:22;;;;;;;15.50;10.82;;;19.80;92.50;;;;;;5091341;28;20368;-74
2023/10/03 00:28:51;;;;;;;16.75;11.27;;;19.80;92.50;;;;;;5092324;28;20048;-74
2023/10/03 00:31:17;;;;;;;13.43;10.25;;;19.80;92.50;;;;;;5092734;28;20024;-74
2023/10/03 00:33:43;;;;;;;14.02;11.07;;;19.80;92.50;;;;;;5095120;28;20046;-74
2023/10/03 00:36:24;;;;;;;17.92;10.93;;;19.70;92.40;;;;;;5094811;28;20056;-74
2023/10/03 00:38:50;;;;;;;15.18;10.63;;;19.70;92.40;;;;;;5096314;28;20360;-74
2023/10/03 00:41:19;;;;;;;13.60;10.25;;;19.70;92.40;;;;;;5095005;28;20024;-74
2023/10/03 00:44:03;;;;;;;12.85;10.75;;;19.70;92.30;;;;;;5096166;28;20027;-73
2023/10/03 00:46:30;;;;;;;11.82;10.20;;;19.70;92.30;;;;;;5095984;28;20024;-74
2023/10/03 00:48:56;;;;;;;18.00;10.68;;;19.80;92.20;;;;;;5096599;28;20103;-73
2023/10/03 00:51:24;;;;;;;15.35;10.55;;;19.80;92.10;;;;;;5095891;28;20024;-74
2023/10/03 00:53:55;;;;;;;14.48;10.88;;;19.70;92.00;;;;;;5095908;28;20107;-74
2023/10/03 00:56:22;;;;;;;16.88;10.70;;;19.70;92.00;;;;;;5095977;28;20522;-74
2023/10/03 00:58:48;;;;;;;15.05;10.65;;;19.70;92.00;;;;;;5092301;28;20056;-74
2023/10/03 01:01:15;;;;;;;17.92;10.90;;;19.60;91.90;;;;;;5093006;28;20432;-74
2023/10/03 01:03:40;;;;;;;15.25;10.93;;;19.50;92.00;;;;;;5093159;28;20475;-74
2023/10/03 01:06:12;;;;;;;14.18;11.05;;;19.50;92.10;;;;;;5095109;28;20025;-74
2023/10/03 01:08:47;;;;;;;15.15;10.85;;;19.50;92.30;;;;;;5095246;28;20024;-74
2023/10/03 01:11:19;;;;;;;15.50;11.20;;;19.40;92.20;;;;;;5095393;28;20024;-74
2023/10/03 01:13:53;;;;;;;14.63;11.60;;;19.40;92.20;;;;;;5095239;28;20514;-73
2023/10/03 01:16:29;;;;;;;14.05;10.57;;;19.30;92.30;;;;;;5095194;28;20384;-74
2023/10/03 01:18:59;;;;;;;11.82;10.43;;;19.30;92.30;;;;;;5094865;28;20089;-73
2023/10/03 01:21:25;;;;;;;11.57;10.38;;;19.30;92.40;;;;;;5095452;28;20028;-74
2023/10/03 01:23:51;;;;;;;15.32;10.82;;;19.30;92.40;;;;;;5095373;28;20428;-75
2023/10/03 01:26:18;;;;;;;12.15;9.50;;;19.30;92.50;;;;;;5095484;28;20053;-75
2023/10/03 01:28:44;;;;;;;22.85;11.60;;;19.30;92.60;;;;;;5095079;28;20115;-75
2023/10/03 01:31:10;;;;;;;17.33;10.20;;;19.30;92.60;;;;;;5095139;28;20379;-74
2023/10/03 01:33:36;;;;;;;11.23;9.70;;;19.20;92.60;;;;;;5095049;28;20036;-74
2023/10/03 01:36:03;;;;;;;14.15;10.70;;;19.30;92.60;;;;;;5094831;28;20059;-74
2023/10/03 01:38:29;;;;;;;12.80;10.35;;;19.30;92.70;;;;;;5094813;28;20055;-74
2023/10/03 01:41:00;;;;;;;13.75;10.23;;;19.20;92.60;;;;;;5094451;28;20026;-74
2023/10/03 01:43:26;;;;;;;15.43;10.35;;;19.20;92.70;;;;;;5094232;28;20024;-75
2023/10/03 01:45:53;;;;;;;14.95;10.65;;;19.20;92.80;;;;;;5094992;28;20384;-74
2023/10/03 01:48:19;;;;;;;12.70;10.05;;;19.20;92.80;;;;;;5095049;28;20450;-74
2023/10/03 01:50:45;;;;;;;15.93;10.60;;;19.20;92.80;;;;;;5094983;28;20020;-74
2023/10/03 01:53:11;;;;;;;13.70;10.50;;;19.20;92.70;;;;;;5094820;28;20027;-74
2023/10/03 01:55:37;;;;;;;13.55;10.45;;;19.20;92.80;;;;;;5094882;28;20038;-76
2023/10/03 01:58:04;;;;;;;15.80;10.30;;;19.10;92.80;;;;;;5094935;28;20032;-74
2023/10/03 02:00:30;;;;;;;16.23;10.80;;;19.10;92.80;;;;;;5094630;28;20034;-74
2023/10/03 02:03:19;;;;;;;18.25;11.45;;;19.10;92.80;;;;;;5094452;28;20024;-74
2023/10/03 02:05:45;;;;;;;16.95;10.50;;;19.10;92.80;;;;;;5094529;28;20428;-73
2023/10/03 02:08:18;;;;;;;15.23;10.00;;;19.10;92.70;;;;;;5094283;28;20028;-73
2023/10/03 02:10:45;;;;;;;14.93;10.82;;;19.10;92.70;;;;;;5094434;28;20387;-75
2023/10/03 02:13:17;;;;;;;12.05;10.18;;;19.20;92.80;;;;;;5094351;28;20472;-73
2023/10/03 02:15:44;;;;;;;;;;;19.10;92.70;;;;;;5094731;28;20039;-74
2023/10/03 02:18:10;;;;;;;17.40;11.48;;;19.10;92.70;;;;;;5092865;28;19958;-74
2023/10/03 02:20:38;;;;;;;16.42;10.68;;;19.10;92.70;;;;;;5094301;28;20043;-73
2023/10/03 02:23:05;;;;;;;13.75;11.02;;;19.10;92.80;;;;;;5094385;28;20651;-75
2023/10/03 02:25:36;;;;;;;15.90;10.88;;;19.00;92.90;;;;;;5093778;28;20023;-74
2023/10/03 02:28:02;;;;;;;14.60;10.63;;;19.00;92.90;;;;;;5094074;28;20487;-74
2023/10/03 02:30:29;;;;;;;15.20;11.02;;;19.00;92.90;;;;;;5094153;28;20047;-75
2023/10/03 02:33:08;;;;;;;12.82;10.73;;;19.00;92.90;;;;;;5094409;28;20028;-74
2023/10/03 02:35:35;;;;;;;15.32;10.80;;;19.00;92.90;;;;;;5094009;28;20036;-74
2023/10/03 02:38:04;;;;;;;13.07;10.77;;;18.90;92.90;;;;;;5093919;28;20077;-74
2023/10/03 02:40:32;;;;;;;15.80;11.10;;;18.90;92.90;;;;;;5093821;28;20024;-73
2023/10/03 02:42:59;;;;;;;12.13;10.43;;;18.90;92.90;;;;;;5094165;28;20065;-75
2023/10/03 02:45:28;;;;;;;15.18;11.15;;;18.90;92.80;;;;;;5093828;28;20016;-75
2023/10/03 02:47:55;;;;;;;23.35;11.63;;;18.80;92.80;;;;;;5093615;28;20468;-74
2023/10/03 02:50:26;;;;;;;13.45;9.88;;;18.80;92.80;;;;;;5093604;28;20032;-73
2023/10/03 02:52:53;;;;;;;23.33;11.68;;;18.80;92.80;;;;;;5093757;28;20020;-74
2023/10/03 02:55:18;;;;;;;14.20;11.15;;;18.80;92.90;;;;;;5093106;28;20038;-74
2023/10/03 02:57:45;;;;;;;16.90;11.40;;;18.80;92.90;;;;;;5093623;28;20103;-74
2023/10/03 03:00:12;;;;;;;14.63;10.85;;;18.80;92.90;;;;;;5093791;28;20043;-74
2023/10/03 03:02:41;;;;;;;13.70;10.50;;;18.80;93.00;;;;;;5093776;28;20028;-74
2023/10/03 03:05:11;;;;;;;16.77;11.30;;;18.80;93.10;;;;;;5093535;28;20028;-73
2023/10/03 03:07:37;;;;;;;12.40;11.15;;;18.80;93.10;;;;;;5093221;28;20416;-73
2023/10/03 03:10:03;;;;;;;13.90;11.23;;;18.80;93.20;;;;;;5093696;28;20059;-75
2023/10/03 03:12:29;;;;;;;13.27;11.27;;;18.80;93.30;;;;;;5093227;28;20023;-73
2023/10/03 03:14:55;;;;;;;15.65;11.43;;;18.80;93.30;;;;;;5093330;28;20487;-74
2023/10/03 03:17:21;;;;;;;14.05;11.55;;;18.80;93.50;;;;;;5093156;28;20475;-73
2023/10/03 03:19:47;;;;;;;15.00;10.95;;;18.80;93.30;;;;;;5093152;28;20074;-73
2023/10/03 03:22:21;;;;;;;13.23;11.07;;;18.80;93.30;;;;;;5093244;28;20048;-74
2023/10/03 03:24:51;;;;;;;16.40;11.05;;;18.70;93.30;;;;;;5093280;28;20024;-74
2023/10/03 03:27:18;;;;;;;17.48;11.63;;;18.70;93.30;;;;;;5091885;28;20016;-74
2023/10/03 03:32:45;;;;;;;15.13;11.75;;;18.70;93.40;;;;;;5050783;28;20039;-74
2023/10/03 03:35:11;;;;;;;13.45;11.30;;;18.60;93.30;;;;;;5084443;28;20043;-74
2023/10/03 03:37:37;;;;;;;16.33;11.60;;;18.60;93.40;;;;;;5092920;28;20103;-75
2023/10/03 03:40:12;;;;;;;13.23;11.02;;;18.60;93.40;;;;;;5092933;28;20028;-74
2023/10/03 03:42:38;;;;;;;14.00;10.43;;;18.60;93.30;;;;;;5092359;28;20564;-74
2023/10/03 03:45:04;;;;;;;13.10;11.18;;;18.60;93.30;;;;;;5092888;28;20078;-73
2023/10/03 03:47:33;;;;;;;17.27;11.48;;;18.60;93.20;;;;;;5092938;28;20051;-74
2023/10/03 03:50:01;;;;;;;13.65;11.60;;;18.70;93.20;;;;;;5093165;28;20115;-74
2023/10/03 03:52:32;;;;;;;23.08;10.57;;;18.60;93.30;;;;;;5092825;28;20039;-74
2023/10/03 03:55:00;;;;;;;14.20;10.75;;;18.60;93.30;;;;;;5092614;28;20067;-74
2023/10/03 03:57:27;;;;;;;15.88;11.35;;;18.60;93.30;;;;;;5092796;28;20485;-73
2023/10/03 03:59:52;;;;;;;15.02;10.65;;;18.60;93.30;;;;;;5092849;28;20035;-74
2023/10/03 04:02:18;;;;;;;13.00;10.60;;;18.50;93.20;;;;;;5092773;28;20024;-74
2023/10/03 04:04:44;;;;;;;12.90;10.38;;;18.50;93.40;;;;;;5092562;28;20149;-73
2023/10/03 04:07:11;;;;;;;19.98;10.60;;;18.50;93.20;;;;;;5093247;28;20458;-74
2023/10/03 04:09:36;;;;;;;14.20;10.85;;;18.50;93.20;;;;;;5096923;28;20066;-74
2023/10/03 04:12:02;;;;;;;14.52;10.77;;;18.40;93.20;;;;;;5096734;28;20052;-74
2023/10/03 04:14:28;;;;;;;13.98;11.35;;;18.40;93.20;;;;;;5096655;28;20028;-73
2023/10/03 04:16:53;;;;;;;17.10;11.23;;;18.40;93.30;;;;;;5096448;28;20094;-74
2023/10/03 04:19:19;;;;;;;19.67;11.52;;;18.40;93.40;;;;;;5095290;28;20111;-74
2023/10/03 04:21:45;;;;;;;13.82;11.50;;;18.40;93.50;;;;;;5096709;28;20032;-74
2023/10/03 04:24:11;;;;;;;11.45;10.35;;;18.40;93.50;;;;;;5096534;28;20497;-75
2023/10/03 04:26:39;;;;;;;19.40;12.63;;;18.40;93.50;;;;;;5096401;28;20020;-75
2023/10/03 04:29:05;;;;;;;16.40;11.70;;;18.40;93.50;;;;;;5096389;28;20028;-73
2023/10/03 04:31:31;;;;;;;15.50;12.25;;;18.40;93.60;;;;;;5096482;28;20047;-74
2023/10/03 04:33:56;;;;;;;16.27;11.63;;;18.40;93.70;;;;;;5096109;28;20085;-75
2023/10/03 04:36:25;;;;;;;17.90;12.50;;;18.40;93.70;;;;;;5096480;28;20019;-75
2023/10/03 04:38:51;;;;;;;20.60;12.57;;;18.30;93.70;;;;;;5096294;28;20503;-74
2023/10/03 04:41:17;;;;;;;13.75;11.60;;;18.30;93.80;;;;;;5096377;28;20028;-74
2023/10/03 04:43:43;;;;;;;14.95;11.60;;;18.30;93.80;;;;;;5096389;28;20030;-73
2023/10/03 04:46:10;;;;;;;17.23;12.02;;;18.30;93.70;;;;;;5096292;28;20380;-75
2023/10/03 04:48:39;;;;;;;14.35;11.05;;;18.30;93.70;;;;;;5095780;28;20058;-74
2023/10/03 04:51:04;;;;;;;19.83;12.43;;;18.30;93.50;;;;;;5096136;28;20506;-74
2023/10/03 04:53:30;;;;;;;13.32;11.52;;;18.20;93.40;;;;;;5096101;28;20113;-74
2023/10/03 04:55:56;;;;;;;19.25;11.85;;;18.20;93.30;;;;;;5096038;28;20064;-74
2023/10/03 04:58:24;;;;;;;17.20;11.48;;;18.20;93.20;;;;;;5096188;28;20483;-75
2023/10/03 05:00:50;;;;;;;15.75;11.13;;;18.10;93.20;;;;;;5095873;28;20468;-74
2023/10/03 05:03:18;;;;;;;15.35;11.32;;;18.10;93.30;;;;;;5095800;28;20027;-74
2023/10/03 05:05:45;;;;;;;15.82;11.65;;;18.10;93.30;;;;;;5095486;28;20030;-73
2023/10/03 05:08:11;;;;;;;18.77;10.85;;;18.10;93.40;;;;;;5095607;28;20065;-74
2023/10/03 05:10:36;;;;;;;16.67;12.07;;;18.10;93.40;;;;;;5095400;28;20028;-74
2023/10/03 05:13:05;;;;;;;16.98;11.18;;;18.00;93.40;;;;;;5095484;28;20678;-73
2023/10/03 05:15:30;;;;;;;15.35;11.40;;;18.00;93.40;;;;;;5095297;28;20118;-74
2023/10/03 05:17:56;;;;;;;16.95;11.48;;;18.00;93.50;;;;;;5095291;28;20099;-73
2023/10/03 05:20:34;;;;;;;17.48;11.82;;;18.10;93.50;;;;;;5094813;28;20065;-74
2023/10/03 05:23:03;;;;;;;38.55;12.88;;;18.10;93.60;;;;;;5095424;28;20024;-75
2023/10/03 05:25:28;;;;;;;20.98;11.57;;;18.10;93.60;;;;;;5095534;28;20066;-74
2023/10/03 05:27:54;;;;;;;17.02;11.57;;;18.10;93.60;;;;;;5095459;28;20456;-74
2023/10/03 05:30:20;;;;;;;18.75;11.55;;;18.00;93.70;;;;;;5095221;28;20523;-74
2023/10/03 05:32:46;;;;;;;17.70;11.13;;;18.00;93.80;;;;;;5095166;28;20020;-74
2023/10/03 05:35:12;;;;;;;17.83;11.65;;;18.00;93.90;;;;;;5095304;28;20028;-74
2023/10/03 05:37:39;;;;;;;21.50;11.45;;;18.00;93.90;;;;;;5095345;28;20047;-74
2023/10/03 05:40:15;;;;;;;15.55;11.43;;;18.10;93.80;;;;;;5093571;28;20035;-73
2023/10/03 05:42:43;;;;;;;18.48;12.05;;;18.10;93.80;;;;;;5095010;28;20051;-75
2023/10/03 05:45:12;;;;;;;18.05;11.93;;;18.10;93.80;;;;;;5093728;28;20054;-74
2023/10/03 05:47:46;;;;;;;17.17;11.43;;;18.10;93.80;;;;;;5094710;28;20074;-74
2023/10/03 05:50:14;;;;;;;17.02;12.10;;;18.10;93.80;;;;;;5094758;28;20667;-74
2023/10/03 05:52:41;;;;;;;22.23;12.63;;;18.20;93.90;;;;;;5094965;28;20162;-75
2023/10/03 05:55:08;;;;;;;12.55;11.25;;;18.10;93.90;;;;;;5094799;28;20032;-74
2023/10/03 05:57:34;;;;;;;16.95;11.57;;;18.20;93.90;;;;;;5094536;28;20020;-72
2023/10/03 06:00:00;;;;;;;20.05;12.00;;;18.20;94.00;;;;;;5094515;28;20032;-74
2023/10/03 06:02:26;;;;;;;20.58;12.15;;;18.20;94.10;;;;;;5094266;28;20020;-74
2023/10/03 06:04:53;;;;;;;20.35;13.48;;;18.20;94.10;;;;;;5094325;28;20020;-74
2023/10/03 06:07:19;;;;;;;21.40;12.43;;;18.30;94.20;;;;;;5094310;28;20044;-74
2023/10/03 06:09:45;;;;;;;18.92;12.60;;;18.20;94.30;;;;;;5094174;28;20053;-74
2023/10/03 06:12:10;;;;;;;21.00;12.93;;;18.30;94.30;;;;;;5094385;28;20016;-74
2023/10/03 06:14:39;;;;;;;29.38;14.55;;;18.30;94.40;;;;;;5093952;28;20047;-74
2023/10/03 06:17:07;;;;;;;21.33;13.27;;;18.30;94.50;;;;;;5093988;28;20103;-74
2023/10/03 06:19:32;;;;;;;23.05;13.15;;;18.40;94.60;;;;;;5094130;28;20031;-75
2023/10/03 06:21:58;;;;;;;25.63;13.63;;;18.40;94.60;;;;;;5093886;28;20020;-74
2023/10/03 06:24:26;;;;;;;23.65;12.75;;;18.40;94.70;;;;;;5093734;28;20028;-71
2023/10/03 06:26:51;;;;;;;25.17;12.68;;;18.40;94.60;;;;;;5093984;28;20020;-73
2023/10/03 06:29:17;;;;;;;22.92;13.45;;;18.50;94.60;;;;;;5093910;28;20031;-74
2023/10/03 06:31:46;;;;;;;26.92;13.98;;;18.50;94.60;;;;;;5093132;28;20031;-74
2023/10/03 06:34:12;;;;;;;28.05;12.88;;;18.60;94.60;;;;;;5093612;28;20036;-73
2023/10/03 06:36:38;;;;;;;22.95;13.45;;;18.60;94.60;;;;;;5093696;28;20055;-73
2023/10/03 06:39:04;;;;;;;22.10;13.15;;;18.60;94.60;;;;;;5093572;28;20369;-73
2023/10/03 06:41:31;;;;;;;29.85;14.57;;;18.70;94.70;;;;;;5094307;28;20032;-74
2023/10/03 06:43:57;;;;;;;31.08;13.57;;;18.70;94.80;;;;;;5093497;28;20035;-73
2023/10/03 06:46:23;;;;;;;34.28;13.88;;;18.80;94.80;;;;;;5093098;28;20032;-74
2023/10/03 06:48:52;;;;;;;30.25;13.73;;;18.80;94.90;;;;;;5093443;28;20576;-75
2023/10/03 06:51:18;;;;;;;23.00;13.35;;;18.90;94.90;;;;;;5093122;28;20028;-74
2023/10/03 06:53:47;;;;;;;27.13;13.55;;;18.90;94.80;;;;;;5092867;28;20097;-74
2023/10/03 06:56:13;;;;;;;23.98;14.35;;;19.00;94.80;;;;;;5092296;28;20433;-74
2023/10/03 06:58:39;;;;;;;30.75;14.30;;;19.00;94.70;;;;;;5093068;28;20422;-75
2023/10/03 07:01:04;;;;;;;29.88;14.05;;;19.10;94.80;;;;;;5092946;28;20034;-75
2023/10/03 07:03:30;;;;;;;39.25;15.10;;;19.10;94.70;;;;;;5092774;28;20103;-74
2023/10/03 07:05:58;;;;;;;25.35;14.75;;;19.20;94.70;;;;;;5093170;28;20030;-74
2023/10/03 07:11:26;;;;;;;31.13;15.60;;;19.30;94.70;;;;;;5093558;28;20038;-75
2023/10/03 07:13:52;;;;;;;27.92;16.50;;;19.30;94.70;;;;;;5093375;28;20446;-73
2023/10/03 07:16:18;;;;;;;27.77;15.38;;;19.40;94.80;;;;;;5093363;28;20085;-74
2023/10/03 07:18:44;;;;;;;27.63;16.00;;;19.40;95.10;;;;;;5093561;28;20036;-74
2023/10/03 07:21:10;;;;;;;26.83;14.93;;;19.40;94.90;;;;;;5092213;28;20111;-75
2023/10/03 07:23:36;;;;;;;29.05;15.68;;;19.50;94.90;;;;;;5093275;28;20020;-75
2023/10/03 07:26:03;;;;;;;27.15;15.23;;;19.60;95.00;;;;;;5093342;28;20051;-74
2023/10/03 07:28:29;;;;;;;23.90;14.85;;;19.60;94.90;;;;;;5093318;28;20031;-75
2023/10/03 07:30:56;;;;;;;27.58;15.05;;;19.70;94.90;;;;;;5093335;28;20566;-74
2023/10/03 07:33:22;;;;;;;26.70;15.23;;;19.70;94.70;;;;;;5093250;28;20032;-75
2023/10/03 07:35:48;;;;;;;24.58;16.33;;;19.80;94.70;;;;;;5092922;28;20047;-74
2023/10/03 07:38:14;;;;;;;27.42;15.15;;;19.80;94.60;;;;;;5093093;28;20025;-75
2023/10/03 07:40:41;;;;;;;31.10;16.45;;;19.90;94.50;;;;;;5093025;28;20480;-74
2023/10/03 07:43:09;;;;;;;29.63;16.42;;;19.90;94.50;;;;;;5092577;28;20025;-75
2023/10/03 07:45:37;;;;;;;27.02;15.70;;;20.00;94.40;;;;;;5092885;28;20039;-76
2023/10/03 07:48:06;;;;;;;32.97;16.42;;;20.00;94.40;;;;;;5092942;28;20131;-75
2023/10/03 07:50:35;;;;;;;35.50;16.00;;;20.10;94.40;;;;;;5092605;28;20028;-75
2023/10/03 07:53:03;;;;;;;30.25;16.92;;;20.10;94.30;;;;;;5093285;28;20103;-75
2023/10/03 07:55:32;;;;;;;28.65;15.73;;;20.20;94.30;;;;;;5092963;28;20078;-75
2023/10/03 07:57:58;;;;;;;28.85;16.90;;;20.20;94.20;;;;;;5092972;28;20418;-75
2023/10/03 08:00:26;;;;;;;26.10;16.23;;;20.30;94.20;;;;;;5092763;28;20036;-75
2023/10/03 08:02:52;;;;;;;28.88;15.88;;;20.30;94.20;;;;;;5093092;28;20061;-74
2023/10/03 08:05:19;;;;;;;24.13;15.60;;;20.30;94.20;;;;;;5092837;28;20028;-74
2023/10/03 08:07:47;;;;;;;22.92;15.65;;;20.40;94.00;;;;;;5093185;28;20018;-74
2023/10/03 08:10:17;;;;;;;25.30;15.07;;;20.40;94.00;;;;;;5093081;28;20415;-73
2023/10/03 08:12:43;;;;;;;19.80;14.20;;;20.50;94.10;;;;;;5092795;28;20024;-73
2023/10/03 08:15:19;;;;;;;28.80;15.25;;;20.50;94.00;;;;;;5092222;28;20036;-74
2023/10/03 08:17:48;;;;;;;27.08;14.73;;;20.60;93.90;;;;;;5090800;28;20028;-74
2023/10/03 08:20:18;;;;;;;19.30;14.88;;;20.60;93.90;;;;;;5091974;28;20020;-75
2023/10/03 08:22:53;;;;;;;19.20;15.25;;;20.70;93.90;;;;;;5092276;28;20016;-74
2023/10/03 08:25:21;;;;;;;22.38;15.25;;;20.70;93.80;;;;;;5092097;28;20028;-75
2023/10/03 08:27:50;;;;;;;18.52;14.45;;;20.80;94.10;;;;;;5092319;28;20080;-74
2023/10/03 08:30:30;;;;;;;21.05;14.82;;;20.80;93.90;;;;;;5092243;28;20039;-74
2023/10/03 08:33:01;;;;;;;26.00;14.52;;;20.80;94.00;;;;;;5092363;28;20020;-74
2023/10/03 08:35:37;;;;;;;19.50;14.60;;;20.90;93.90;;;;;;5092274;28;20111;-75
2023/10/03 08:38:04;;;;;;;17.58;14.60;;;20.90;93.70;;;;;;5091359;28;20027;-73
2023/10/03 08:40:38;;;;;;;18.35;14.55;;;21.00;93.70;;;;;;5092518;28;20063;-73
2023/10/03 08:43:09;;;;;;;18.90;14.40;;;21.00;93.70;;;;;;5092778;28;20093;-74
2023/10/03 08:45:42;;;;;;;22.77;14.52;;;21.10;93.70;;;;;;5092363;28;20024;-74
2023/10/03 08:48:10;;;;;;;23.52;13.10;;;21.10;93.80;;;;;;5092191;28;20040;-73
2023/10/03 08:50:40;;;;;;;22.45;13.77;;;21.20;93.70;;;;;;5092425;28;20024;-74
2023/10/03 08:55:50;;;;;;;21.30;14.43;;;21.30;93.60;;;;;;5095948;28;20082;-74
2023/10/03 08:58:18;;;;;;;18.63;13.57;;;21.40;93.30;;;;;;5096139;28;20051;-73
2023/10/03 09:00:49;;;;;;;22.63;15.05;;;21.40;93.10;;;;;;5095957;28;20032;-77
2023/10/03 09:03:17;;;;;;;21.00;13.55;;;21.50;93.10;;;;;;5095855;28;20062;-78
2023/10/03 09:05:45;;;;;;;19.10;12.73;;;21.50;92.90;;;;;;5095918;28;20024;-78
2023/10/03 09:08:13;;;;;;;15.77;13.32;;;21.60;93.10;;;;;;5095845;28;20016;-73
2023/10/03 09:10:52;;;;;;;18.75;12.75;;;21.60;93.10;;;;;;5095436;28;20027;-77
2023/10/03 09:13:23;;;;;;;14.85;13.02;;;21.70;93.20;;;;;;5095370;28;20047;-79
2023/10/03 09:15:59;;;;;;;19.42;13.27;;;21.70;93.20;;;;;;5095554;28;20039;-77
2023/10/03 09:18:42;;;;;;;21.20;13.70;;;21.70;93.20;;;;;;5095901;28;20028;-76
2023/10/03 09:21:15;;;;;;;;;;;21.80;93.20;;;;;;5096229;28;20024;-78
2023/10/03 09:24:10;;;;;;;19.02;13.93;;;21.80;92.80;;;;;;5095845;28;20357;-79
2023/10/03 09:26:54;;;;;;;17.73;12.80;;;21.90;92.60;;;;;;5095393;28;20020;-77
2023/10/03 09:29:29;;;;;;;20.95;13.85;;;21.90;92.50;;;;;;5093906;28;20031;-77
2023/10/03 09:31:57;;;;;;;19.77;14.52;;;21.90;92.70;;;;;;5094691;28;20048;-79
2023/10/03 09:34:32;;;;;;;26.33;14.75;;;22.00;92.60;;;;;;5095008;28;20042;-79
2023/10/03 09:37:05;;;;;;;19.27;13.23;;;22.00;92.60;;;;;;5095016;28;20024;-79
2023/10/03 09:39:39;;;;;;;17.35;13.52;;;22.10;92.50;;;;;;5094509;28;20036;-79
2023/10/03 09:42:15;;;;;;;19.70;14.23;;;22.10;92.60;;;;;;5094711;28;20028;-78
2023/10/03 09:44:45;;;;;;;23.20;14.18;;;22.20;92.50;;;;;;5094381;28;20037;-79
2023/10/03 09:47:18;;;;;;;23.40;14.40;;;22.20;92.20;;;;;;5094065;28;20100;-77
2023/10/03 09:49:46;;;;;;;17.85;14.85;;;22.30;92.30;;;;;;5094708;28;20509;-79
2023/10/03 09:52:22;;;;;;;19.52;14.82;;;22.30;92.20;;;;;;5094553;28;20038;-78
2023/10/03 09:54:59;;;;;;;24.85;16.17;;;22.40;91.90;;;;;;5096157;28;20036;-83
2023/10/03 09:57:29;;;;;;;22.65;15.20;;;22.40;92.00;;;;;;5095065;28;20107;-82
2023/10/03 09:59:55;;;;;;;24.85;14.77;;;22.50;92.00;;;;;;5094319;28;20043;-83
2023/10/03 10:02:35;;;;;;;19.48;14.93;;;22.60;92.10;;;;;;5094736;28;20019;-83
2023/10/03 10:05:19;;;;;;;22.83;14.43;;;22.60;92.00;;;;;;5094492;28;20110;-83
2023/10/03 10:07:51;;;;;;;19.63;13.88;;;22.70;92.00;;;;;;5094701;28;20464;-81
2023/10/03 10:10:19;;;;;;;23.92;14.77;;;22.70;91.90;;;;;;5094929;28;20052;-81
2023/10/03 10:13:12;;;;;;;21.13;13.52;;;22.80;91.60;;;;;;5094538;28;20021;-83
2023/10/03 10:16:15;;;;;;;22.02;15.15;;;22.80;91.40;;;;;;5094168;28;20036;-83
2023/10/03 10:18:44;;;;;;;18.73;15.40;;;22.90;90.60;;;;;;5096308;28;20040;-79
2023/10/03 10:21:31;;;;;;;20.83;15.02;;;22.90;90.30;;;;;;5094652;28;20081;-84
2023/10/03 10:24:23;;;;;;;18.58;13.18;;;22.90;90.30;;;;;;5094506;28;20028;-85
2023/10/03 10:26:52;;;;;;;21.67;13.15;;;22.90;90.40;;;;;;5094297;28;20020;-81
2023/10/03 10:29:25;;;;;;;22.02;12.80;;;23.00;90.70;;;;;;5094226;28;20024;-78
2023/10/03 10:31:57;;;;;;;20.67;13.82;;;23.00;91.00;;;;;;5095606;28;20024;-81
2023/10/03 10:34:40;;;;;;;21.48;14.93;;;23.10;90.60;;;;;;5096218;28;20036;-79
2023/10/03 10:37:11;;;;;;;16.10;13.52;;;23.10;90.70;;;;;;5093082;28;20016;-81
2023/10/03 10:39:55;;;;;;;19.02;14.40;;;23.20;90.60;;;;;;5083844;28;20024;-80
2023/10/03 10:42:25;;;;;;;23.98;13.85;;;23.20;90.90;;;;;;5083933;28;20078;-81
2023/10/03 10:45:13;;;;;;;17.90;13.27;;;23.20;90.50;;;;;;5083611;28;20028;-78
2023/10/03 10:47:49;;;;;;;20.90;13.82;;;23.20;90.10;;;;;;5083205;28;20508;-81
2023/10/03 10:50:17;;;;;;;18.05;12.38;;;23.30;90.10;;;;;;5082406;28;20507;-80
2023/10/03 10:52:57;;;;;;;18.42;11.57;;;23.30;89.80;;;;;;5082971;28;20071;-80
2023/10/03 10:55:26;;;;;;;21.85;11.73;;;23.30;90.10;;;;;;5084861;28;20039;-81
2023/10/03 10:58:08;;;;;;;13.63;12.15;;;23.40;90.20;;;;;;5082174;28;20016;-79
2023/10/03 11:00:34;;;;;;;17.55;11.23;;;23.40;90.80;;;;;;5074593;28;20024;-81
2023/10/03 11:03:04;;;;;;;19.50;11.60;;;23.50;90.60;;;;;;5076903;28;20048;-81
2023/10/03 11:05:47;;;;;;;16.77;10.55;;;23.50;90.50;;;;;;5076026;28;20353;-75
2023/10/03 11:08:13;;;;;;;14.68;9.80;;;23.60;98.30;;;;;;5072897;28;20115;-80
2023/10/03 11:10:49;;;;;;;15.82;10.90;;;23.60;90.40;;;;;;5071748;28;20499;-80
2023/10/03 11:13:14;;;;;;;14.52;9.95;;;23.70;89.00;;;;;;5071813;28;20364;-75
2023/10/03 11:16:00;;;;;;;14.60;11.52;;;23.70;88.90;;;;;;5071275;28;20103;-79
2023/10/03 11:18:31;;;;;;;21.08;9.88;;;23.70;89.00;;;;;;5072216;28;20502;-80
2023/10/03 11:20:59;;;;;;;13.93;10.07;;;23.70;89.00;;;;;;5073018;28;20057;-80
2023/10/03 11:23:24;;;;;;;14.65;9.38;;;23.70;87.50;;;;;;5073004;28;20445;-80
2023/10/03 11:25:57;;;;;;;16.70;9.35;;;23.90;89.80;;;;;;5072826;28;20056;-73
2023/10/03 11:28:24;;;;;;;14.43;8.70;;;24.00;93.70;;;;;;5072425;28;20030;-73
2023/10/03 11:31:09;;;;;;;12.23;9.05;;;23.90;88.80;;;;;;5072630;28;20103;-74
2023/10/03 11:33:45;;;;;;;19.92;8.57;;;23.90;87.60;;;;;;5072906;28;20035;-74
2023/10/03 11:36:12;;;;;;;10.10;8.38;;;24.00;87.30;;;;;;5072847;28;20381;-73
2023/10/03 11:38:49;;;;;;;13.43;8.40;;;24.00;86.80;;;;;;5072449;28;20032;-73
2023/10/03 11:41:29;;;;;;;11.95;7.75;;;24.00;86.40;;;;;;5072502;28;20101;-73
2023/10/03 11:43:54;;;;;;;11.63;9.02;;;24.10;84.20;;;;;;5072602;28;20082;-74
2023/10/03 11:46:21;;;;;;;11.15;7.22;;;24.20;87.60;;;;;;5072931;28;20029;-73
2023/10/03 11:48:46;;;;;;;15.68;8.27;;;24.20;85.70;;;;;;5072290;28;20470;-74
2023/10/03 11:51:13;;;;;;;10.38;7.45;;;24.20;87.00;;;;;;5071419;28;20108;-73
2023/10/03 11:53:38;;;;;;;14.60;8.30;;;24.20;85.80;;;;;;5079210;28;20023;-74
2023/10/03 11:56:04;;;;;;;13.35;7.13;;;24.30;86.00;;;;;;5092558;28;20040;-74
2023/10/03 11:58:30;;;;;;;12.00;7.75;;;24.30;83.70;;;;;;5092750;28;20035;-74
2023/10/03 12:00:57;;;;;;;14.07;7.07;;;24.20;80.80;;;;;;5092609;28;20016;-74
2023/10/03 12:03:22;;;;;;;9.60;6.75;;;24.20;80.60;;;;;;5092664;28;20529;-74
2023/10/03 12:05:52;;;;;;;14.70;8.82;;;24.30;80.00;;;;;;5092771;28;20028;-74
2023/10/03 12:08:18;;;;;;;11.93;8.82;;;24.30;80.70;;;;;;5092577;28;20078;-71
2023/10/03 12:10:43;;;;;;;16.38;8.73;;;24.30;80.90;;;;;;5092564;28;20040;-73
2023/10/03 12:13:09;;;;;;;13.38;8.68;;;24.30;80.80;;;;;;5092592;28;20095;-73
2023/10/03 12:15:41;;;;;;;16.33;8.35;;;24.30;80.90;;;;;;5092621;28;20074;-73
2023/10/03 12:18:07;;;;;;;12.43;7.03;;;24.40;80.40;;;;;;5092553;28;20020;-74
2023/10/03 12:20:34;;;;;;;13.05;7.13;;;24.40;79.80;;;;;;5092596;28;20031;-71
2023/10/03 12:23:01;;;;;;;11.63;6.93;;;24.40;78.60;;;;;;5092340;28;20033;-73
2023/10/03 12:25:29;;;;;;;12.75;6.80;;;24.40;79.60;;;;;;5092014;28;20056;-73
2023/10/03 12:27:55;;;;;;;10.15;7.07;;;24.50;79.20;;;;;;5091115;28;20024;-73
2023/10/03 12:30:22;;;;;;;14.43;7.15;;;24.60;77.90;;;;;;5095953;28;20472;-71
2023/10/03 12:32:50;;;;;;;14.23;7.40;;;24.70;83.60;;;;;;5096132;28;20526;-74
2023/10/03 12:35:17;;;;;;;15.20;6.72;;;24.60;78.50;;;;;;5095992;28;20161;-74
2023/10/03 12:37:45;;;;;;;17.02;7.00;;;24.60;78.00;;;;;;5096298;28;20084;-74
2023/10/03 12:40:15;;;;;;;10.40;6.82;;;24.70;77.20;;;;;;5096302;28;20078;-74
2023/10/03 12:42:43;;;;;;;13.30;6.53;;;24.70;77.00;;;;;;5096547;28;20149;-73
2023/10/03 12:45:12;;;;;;;16.60;7.43;;;24.70;76.00;;;;;;5096108;28;20024;-74
2023/10/03 12:47:39;;;;;;;13.48;7.15;;;24.70;76.50;;;;;;5095971;28;20063;-75